ENGC

Gullfax Platform Airport

Norway
METAR ENGC 151850Z 01024KT 9999 FEW015CB SCT020 05/00 Q0999 W05/S5
Observed Flight Rules
Dec-15 @ 18:50 UTC (37 minutes ago) Visual Flight Rules
Wind Visibility Clouds
10° at 24 knots 10,000+ meters
  • Few at 1,500' AGL
  • Scattered at 2,000' AGL
Temperatures Readings
Current 5°C / 41°F
Dewpoint 0°C / 32°F
Humidity 70%
Altimeter 29.5" Hg
Pressure 999 hPa
Elevation 10
METAR ENGC 151850Z 01024KT 9999 FEW015CB SCT020 05/00 Q0999 W05/S5
Observed Flight Rules
Dec-15 @ 18:50 UTC
(37 minutes ago)
VFR
Wind Visibility
10° at 24 knots 10,000+ meters
Clouds
  • Few at 1,500' AGL
  • Scattered at 2,000' AGL
Temperature Dewpoint
5°C / 41°F 0°C / 32°F
Humidity Altimeter Pressure
70% 29.5" Hg 999 hPa